createdAt,value
2023-03-27T00:00:10.085Z,4.72
2023-03-27T00:01:09.983Z,4.70
2023-03-27T00:02:10.017Z,4.69
2023-03-27T00:03:10.014Z,4.66
2023-03-27T00:04:10.099Z,4.67
2023-03-27T00:05:10.042Z,4.67
2023-03-27T00:06:09.963Z,4.70
2023-03-27T00:07:09.912Z,4.69
2023-03-27T00:08:09.940Z,4.67
2023-03-27T00:09:09.892Z,4.67
2023-03-27T00:10:09.961Z,4.65
2023-03-27T00:11:09.884Z,4.63
2023-03-27T00:12:09.863Z,4.60
2023-03-27T00:13:09.857Z,4.54
2023-03-27T00:14:09.941Z,4.52
2023-03-27T00:15:09.883Z,4.50
2023-03-27T00:16:09.946Z,4.50
2023-03-27T00:17:09.813Z,4.54
2023-03-27T00:18:09.846Z,4.55
2023-03-27T00:19:09.836Z,4.55
2023-03-27T00:20:09.907Z,4.50
2023-03-27T00:21:09.776Z,4.44
2023-03-27T00:22:09.816Z,4.40
2023-03-27T00:23:09.743Z,4.34
2023-03-27T00:24:09.932Z,4.30
2023-03-27T00:25:09.732Z,4.27
2023-03-27T00:26:09.847Z,4.26
2023-03-27T00:27:09.694Z,4.27
2023-03-27T00:28:09.776Z,4.32
2023-03-27T00:29:09.689Z,4.34
2023-03-27T00:30:09.713Z,4.33
2023-03-27T00:31:09.712Z,4.30
2023-03-27T00:32:09.726Z,4.26
2023-03-27T00:33:09.663Z,4.20
2023-03-27T00:34:09.732Z,4.16
2023-03-27T00:35:09.610Z,4.12
2023-03-27T00:36:09.671Z,4.09
2023-03-27T00:37:09.605Z,4.09
2023-03-27T00:38:09.602Z,4.06
2023-03-27T00:39:09.581Z,4.02
2023-03-27T00:40:09.719Z,3.98
2023-03-27T00:41:09.568Z,3.97
2023-03-27T00:42:09.608Z,3.94
2023-03-27T00:43:09.530Z,3.94
2023-03-27T00:44:09.586Z,3.97
2023-03-27T00:45:09.571Z,3.97
2023-03-27T00:46:09.567Z,3.94
2023-03-27T00:47:09.500Z,3.90
2023-03-27T00:48:09.477Z,3.90
2023-03-27T00:49:09.467Z,3.88
2023-03-27T00:50:09.471Z,3.88
2023-03-27T00:51:09.467Z,3.90
2023-03-27T00:52:09.510Z,3.87
2023-03-27T00:53:09.426Z,3.84
2023-03-27T00:54:09.685Z,3.84
2023-03-27T00:55:09.422Z,3.78
2023-03-27T00:56:09.437Z,3.70
2023-03-27T00:57:09.505Z,3.62
2023-03-27T00:58:09.566Z,3.58
2023-03-27T00:59:09.402Z,3.55
2023-03-27T01:00:09.635Z,3.50
2023-03-27T01:01:09.408Z,3.43
2023-03-27T01:02:09.379Z,3.40
2023-03-27T01:03:09.421Z,3.35
2023-03-27T01:04:09.432Z,3.33
2023-03-27T01:05:09.296Z,3.32
2023-03-27T01:06:09.371Z,3.28
2023-03-27T01:07:09.301Z,3.24
2023-03-27T01:08:09.367Z,3.29
2023-03-27T01:09:09.349Z,3.29
2023-03-27T01:10:09.315Z,3.28
2023-03-27T01:11:09.234Z,3.28
2023-03-27T01:12:09.237Z,3.21
2023-03-27T01:13:09.233Z,3.20
2023-03-27T01:14:09.256Z,3.20
2023-03-27T01:15:09.180Z,3.18
2023-03-27T01:16:09.292Z,3.20
2023-03-27T01:17:09.242Z,3.20
2023-03-27T01:18:09.290Z,3.18
2023-03-27T01:19:09.248Z,3.17
2023-03-27T01:20:09.325Z,3.13
2023-03-27T01:21:09.137Z,3.13
2023-03-27T01:22:09.123Z,3.13
2023-03-27T01:23:09.113Z,3.13
2023-03-27T01:24:09.109Z,3.15
2023-03-27T01:25:09.068Z,3.13
2023-03-27T01:26:09.149Z,3.10
2023-03-27T01:27:09.095Z,3.08
2023-03-27T01:28:09.060Z,3.08
2023-03-27T01:29:09.092Z,3.10
2023-03-27T01:30:09.029Z,3.10
2023-03-27T01:31:09.044Z,3.10
2023-03-27T01:32:09.241Z,3.08
2023-03-27T01:33:09.055Z,3.02
2023-03-27T01:34:09.030Z,3.03
2023-03-27T01:35:08.958Z,3.02
2023-03-27T01:36:09.029Z,3.03
2023-03-27T01:37:08.959Z,3.03
2023-03-27T01:38:09.008Z,3.00
2023-03-27T01:39:08.957Z,3.00
2023-03-27T01:40:08.932Z,3.03
2023-03-27T01:41:09.013Z,3.02
2023-03-27T01:42:08.985Z,2.97
2023-03-27T01:43:08.930Z,2.99
2023-03-27T01:44:08.950Z,2.99
2023-03-27T01:45:08.884Z,2.99
2023-03-27T01:46:08.916Z,2.99
2023-03-27T01:47:08.839Z,3.00
2023-03-27T01:48:08.816Z,3.03
2023-03-27T01:49:08.962Z,3.03
2023-03-27T01:50:08.895Z,3.03
2023-03-27T01:51:08.929Z,3.02
2023-03-27T01:52:08.826Z,2.96
2023-03-27T01:53:08.793Z,2.92
2023-03-27T01:54:08.864Z,2.92
2023-03-27T01:55:08.845Z,2.95
2023-03-27T01:56:08.814Z,2.93
2023-03-27T01:57:08.810Z,2.96
2023-03-27T01:58:08.896Z,2.96
2023-03-27T01:59:08.727Z,2.96
2023-03-27T02:00:18.237Z,2.93
2023-03-27T02:01:10.085Z,2.96
2023-03-27T02:02:08.749Z,2.96
2023-03-27T02:03:08.656Z,2.93
2023-03-27T02:04:08.651Z,2.92
2023-03-27T02:05:08.723Z,2.95
2023-03-27T02:06:08.763Z,2.97
2023-03-27T02:07:08.676Z,2.97
2023-03-27T02:08:08.624Z,2.96
2023-03-27T02:09:08.637Z,2.95
2023-03-27T02:10:08.804Z,2.93
2023-03-27T02:11:08.639Z,2.93
2023-03-27T02:12:08.696Z,2.92
2023-03-27T02:13:08.566Z,2.89
2023-03-27T02:14:08.563Z,2.85
2023-03-27T02:15:08.631Z,2.85
2023-03-27T02:16:09.536Z,2.82
2023-03-27T02:17:08.506Z,2.78
2023-03-27T02:18:08.517Z,2.79
2023-03-27T02:19:08.632Z,2.77
2023-03-27T02:20:08.513Z,2.75
2023-03-27T02:21:08.555Z,2.72
2023-03-27T02:22:08.516Z,2.71
2023-03-27T02:23:08.567Z,2.74
2023-03-27T02:24:08.562Z,2.75
2023-03-27T02:25:08.426Z,2.77
2023-03-27T02:26:08.475Z,2.77
2023-03-27T02:27:08.409Z,2.78
2023-03-27T02:28:08.674Z,2.78
2023-03-27T02:29:08.454Z,2.75
2023-03-27T02:30:08.437Z,2.71
2023-03-27T02:31:32.779Z,2.69
2023-03-27T02:32:09.495Z,2.64
2023-03-27T02:33:08.532Z,2.64
2023-03-27T02:34:08.353Z,2.64
2023-03-27T02:35:08.334Z,2.64
2023-03-27T02:36:09.383Z,2.63
2023-03-27T02:37:08.395Z,2.66
2023-03-27T02:38:08.338Z,2.69
2023-03-27T02:39:08.280Z,2.74
2023-03-27T02:40:08.355Z,2.71
2023-03-27T02:41:08.269Z,2.72
2023-03-27T02:42:08.300Z,2.74
2023-03-27T02:43:08.493Z,2.69
2023-03-27T02:44:08.335Z,2.69
2023-03-27T02:45:08.285Z,2.69
2023-03-27T02:46:08.378Z,2.75
2023-03-27T02:47:08.378Z,2.79
2023-03-27T02:48:08.333Z,2.78
2023-03-27T02:49:08.200Z,2.79
2023-03-27T02:50:08.241Z,2.79
2023-03-27T02:51:08.210Z,2.77
2023-03-27T02:52:08.248Z,2.77
2023-03-27T02:53:08.248Z,2.72
2023-03-27T02:54:08.247Z,2.72
2023-03-27T02:55:08.164Z,2.72
2023-03-27T02:56:08.130Z,2.71
2023-03-27T02:57:08.254Z,2.72
2023-03-27T02:58:08.178Z,2.72
2023-03-27T02:59:08.113Z,2.72
2023-03-27T03:00:08.093Z,2.71
2023-03-27T03:01:08.137Z,2.72
2023-03-27T03:02:08.133Z,2.71
2023-03-27T03:03:08.127Z,2.72
2023-03-27T03:04:08.360Z,2.72
2023-03-27T03:05:08.023Z,2.71
2023-03-27T03:06:08.061Z,2.67
2023-03-27T03:07:08.054Z,2.66
2023-03-27T03:08:08.121Z,2.63
2023-03-27T03:09:07.971Z,2.63
2023-03-27T03:10:09.583Z,2.63
2023-03-27T03:11:08.070Z,2.63
2023-03-27T03:12:08.137Z,2.66
2023-03-27T03:13:07.953Z,2.67
2023-03-27T03:14:08.111Z,2.66
2023-03-27T03:15:07.919Z,2.64
2023-03-27T03:16:07.919Z,2.63
2023-03-27T03:17:07.949Z,2.63
2023-03-27T03:18:08.129Z,2.59
2023-03-27T03:19:07.949Z,2.60
2023-03-27T03:20:07.878Z,2.59
2023-03-27T03:21:07.850Z,2.57
2023-03-27T03:22:07.885Z,2.56
2023-03-27T03:23:07.937Z,2.54
2023-03-27T03:24:07.829Z,2.54
2023-03-27T03:25:07.876Z,2.56
2023-03-27T03:26:07.859Z,2.54
2023-03-27T03:27:07.806Z,2.52
2023-03-27T03:28:07.786Z,2.49
2023-03-27T03:29:07.768Z,2.46
2023-03-27T03:30:07.982Z,2.48
2023-03-27T03:31:07.772Z,2.49
2023-03-27T03:32:07.778Z,2.49
2023-03-27T03:33:07.759Z,2.49
2023-03-27T03:34:07.929Z,2.48
2023-03-27T03:35:07.708Z,2.49
2023-03-27T03:36:07.782Z,2.45
2023-03-27T03:37:07.691Z,2.43
2023-03-27T03:38:07.698Z,2.43
2023-03-27T03:39:07.650Z,2.41
2023-03-27T03:40:07.694Z,2.38
2023-03-27T03:41:07.642Z,2.36
2023-03-27T03:42:07.642Z,2.35
2023-03-27T03:43:07.655Z,2.34
2023-03-27T03:44:07.683Z,2.35
2023-03-27T03:45:07.606Z,2.36
2023-03-27T03:46:07.916Z,2.34
2023-03-27T03:47:07.586Z,2.35
2023-03-27T03:48:07.741Z,2.38
2023-03-27T03:49:07.616Z,2.39
2023-03-27T03:50:07.686Z,2.41
2023-03-27T03:51:07.537Z,2.38
2023-03-27T03:52:07.583Z,2.35
2023-03-27T03:53:07.534Z,2.36
2023-03-27T03:54:07.526Z,2.31
2023-03-27T03:55:07.502Z,2.30
2023-03-27T03:56:07.494Z,2.28
2023-03-27T03:57:07.545Z,2.25
2023-03-27T03:58:07.533Z,2.34
2023-03-27T03:59:07.463Z,2.38
2023-03-27T04:00:07.573Z,2.36
2023-03-27T04:01:07.475Z,2.39
2023-03-27T04:02:07.475Z,2.39
2023-03-27T04:03:07.536Z,2.41
2023-03-27T04:04:07.558Z,2.41
2023-03-27T04:05:08.941Z,2.41
2023-03-27T04:06:07.640Z,2.41
2023-03-27T04:07:07.360Z,2.39
2023-03-27T04:08:07.454Z,2.42
2023-03-27T04:09:07.357Z,2.38
2023-03-27T04:10:07.361Z,2.38
2023-03-27T04:11:07.315Z,2.35
2023-03-27T04:12:07.352Z,2.34
2023-03-27T04:13:07.333Z,2.34
2023-03-27T04:14:07.302Z,2.34
2023-03-27T04:15:07.307Z,2.31
2023-03-27T04:16:07.374Z,2.31
2023-03-27T04:17:07.362Z,2.30
2023-03-27T04:18:07.352Z,2.28
2023-03-27T04:19:07.402Z,2.28
2023-03-27T04:20:07.326Z,2.25
2023-03-27T04:21:07.212Z,2.20
2023-03-27T04:22:07.251Z,2.17
2023-03-27T04:23:07.232Z,2.09
2023-03-27T04:24:07.501Z,2.05
2023-03-27T04:25:07.234Z,2.00
2023-03-27T04:26:07.231Z,1.98
2023-03-27T04:27:07.169Z,1.91
2023-03-27T04:28:07.176Z,1.87
2023-03-27T04:29:07.210Z,1.84
2023-03-27T04:30:07.300Z,1.81
2023-03-27T04:31:07.180Z,1.80
2023-03-27T04:32:07.180Z,1.77
2023-03-27T04:33:07.121Z,1.73
2023-03-27T04:34:07.088Z,1.70
2023-03-27T04:35:07.296Z,1.68
2023-03-27T04:36:08.025Z,1.65
2023-03-27T04:37:07.049Z,1.63
2023-03-27T04:38:07.122Z,1.58
2023-03-27T04:39:07.068Z,1.54
2023-03-27T04:40:07.214Z,1.50
2023-03-27T04:41:07.039Z,1.48
2023-03-27T04:42:07.109Z,1.45
2023-03-27T04:43:07.046Z,1.42
2023-03-27T04:44:07.034Z,1.40
2023-03-27T04:45:06.999Z,1.37
2023-03-27T04:46:07.046Z,1.33
2023-03-27T04:48:07.012Z,1.33
2023-03-27T04:49:06.985Z,1.33
2023-03-27T04:50:06.991Z,1.33
2023-03-27T04:51:06.931Z,1.30
2023-03-27T04:52:06.919Z,1.30
2023-03-27T04:53:06.932Z,1.27
2023-03-27T04:54:06.926Z,1.29
2023-03-27T04:55:06.895Z,1.27
2023-03-27T04:56:06.974Z,1.30
2023-03-27T04:57:06.871Z,1.29
2023-03-27T04:58:06.886Z,1.29
2023-03-27T04:59:06.829Z,1.27
2023-03-27T05:00:06.857Z,1.26
2023-03-27T05:01:06.864Z,1.24
2023-03-27T05:02:06.932Z,1.23
2023-03-27T05:03:06.932Z,1.22
2023-03-27T05:04:06.855Z,1.23
2023-03-27T05:05:06.792Z,1.22
2023-03-27T05:06:06.792Z,1.22
2023-03-27T05:07:06.755Z,1.20
2023-03-27T05:08:06.872Z,1.16
2023-03-27T05:09:06.724Z,1.15
2023-03-27T05:10:06.775Z,1.14
2023-03-27T05:11:06.694Z,1.12
2023-03-27T05:12:06.759Z,1.08
2023-03-27T05:13:06.683Z,1.05
2023-03-27T05:14:06.760Z,1.02
2023-03-27T05:15:07.870Z,1.00
2023-03-27T05:16:08.327Z,1.02
2023-03-27T05:17:07.484Z,1.02
2023-03-27T05:18:09.297Z,1.02
2023-03-27T05:19:10.663Z,1.02
2023-03-27T05:20:07.397Z,1.02
2023-03-27T05:21:08.359Z,1.04
2023-03-27T05:22:07.384Z,1.04
2023-03-27T05:23:07.243Z,1.02
2023-03-27T05:24:07.120Z,0.98
2023-03-27T05:25:06.545Z,0.98
2023-03-27T05:26:06.635Z,0.96
2023-03-27T05:27:06.535Z,0.96
2023-03-27T05:28:06.631Z,0.94
2023-03-27T05:29:06.511Z,0.93
2023-03-27T05:30:06.552Z,0.91
2023-03-27T05:31:06.529Z,0.88
2023-03-27T05:32:06.601Z,0.87
2023-03-27T05:33:06.502Z,0.87
2023-03-27T05:34:06.499Z,0.86
2023-03-27T05:35:06.454Z,0.84
2023-03-27T05:36:06.897Z,0.84
2023-03-27T05:37:06.441Z,0.83
2023-03-27T05:38:06.519Z,0.80
2023-03-27T05:39:06.418Z,0.80
2023-03-27T05:40:06.465Z,0.78
2023-03-27T05:41:06.412Z,0.80
2023-03-27T05:42:06.389Z,0.79
2023-03-27T05:43:07.584Z,0.80
2023-03-27T05:44:06.395Z,0.84
2023-03-27T05:45:06.363Z,0.86
2023-03-27T05:46:06.503Z,0.86
2023-03-27T05:47:06.319Z,0.86
2023-03-27T05:48:06.362Z,0.83
2023-03-27T05:49:06.361Z,0.86
2023-03-27T05:50:06.347Z,0.88
2023-03-27T05:51:06.295Z,0.88
2023-03-27T05:52:06.415Z,0.90
2023-03-27T05:53:06.255Z,0.91
2023-03-27T05:54:06.462Z,0.94
2023-03-27T05:55:06.234Z,0.97
2023-03-27T05:56:06.250Z,1.00
2023-03-27T05:57:06.250Z,1.02
2023-03-27T05:58:06.210Z,1.02
2023-03-27T05:59:06.193Z,1.04
2023-03-27T06:00:06.270Z,1.06
2023-03-27T06:01:06.182Z,1.06
2023-03-27T06:02:06.420Z,1.12
2023-03-27T06:03:06.360Z,1.18
2023-03-27T06:04:06.253Z,1.18
2023-03-27T06:05:06.134Z,1.22
2023-03-27T06:06:06.138Z,1.22
2023-03-27T06:07:06.107Z,1.27
2023-03-27T06:08:06.176Z,1.27
2023-03-27T06:09:06.105Z,1.36
2023-03-27T06:10:06.162Z,1.42
2023-03-27T06:11:07.105Z,1.47
2023-03-27T06:12:06.119Z,1.54
2023-03-27T06:13:06.080Z,1.62
2023-03-27T06:14:06.123Z,1.65
2023-03-27T06:15:06.048Z,1.68
2023-03-27T06:16:06.179Z,1.70
2023-03-27T06:17:06.006Z,1.79
2023-03-27T06:18:06.252Z,1.83
2023-03-27T06:19:05.995Z,1.90
2023-03-27T06:20:05.997Z,1.98
2023-03-27T06:21:05.976Z,2.03
2023-03-27T06:22:05.995Z,2.09
2023-03-27T06:23:05.943Z,2.14
2023-03-27T06:24:05.996Z,2.20
2023-03-27T06:25:05.935Z,2.28
2023-03-27T06:26:06.024Z,2.39
2023-03-27T06:27:05.906Z,2.49
2023-03-27T06:28:06.042Z,2.61
2023-03-27T06:29:07.870Z,2.71
2023-03-27T06:30:05.875Z,2.82
2023-03-27T06:31:05.889Z,2.90
2023-03-27T06:32:05.848Z,2.96
2023-03-27T06:33:05.956Z,3.02
2023-03-27T06:34:05.835Z,3.06
2023-03-27T06:35:05.816Z,3.14
2023-03-27T06:36:05.886Z,3.14
2023-03-27T06:37:05.813Z,3.18
2023-03-27T06:38:05.781Z,3.23
2023-03-27T06:39:05.811Z,3.28
2023-03-27T06:40:05.817Z,3.31
2023-03-27T06:41:05.778Z,3.35
2023-03-27T06:42:05.785Z,3.40
2023-03-27T06:43:05.816Z,3.43
2023-03-27T06:44:05.724Z,3.45
2023-03-27T06:45:05.778Z,3.47
2023-03-27T06:46:05.814Z,3.48
2023-03-27T06:47:05.709Z,3.50
2023-03-27T06:48:16.268Z,3.51
2023-03-27T06:49:06.668Z,3.52
2023-03-27T06:50:05.743Z,3.52
2023-03-27T06:51:05.692Z,3.57
2023-03-27T06:52:05.644Z,3.62
2023-03-27T06:53:10.066Z,3.68
2023-03-27T06:54:06.636Z,3.73
2023-03-27T06:55:05.624Z,3.78
2023-03-27T06:56:06.656Z,3.84
2023-03-27T06:57:05.658Z,3.87
2023-03-27T06:58:05.568Z,3.94
2023-03-27T06:59:05.556Z,3.96
2023-03-27T07:00:05.573Z,3.96
2023-03-27T07:01:05.549Z,3.96
2023-03-27T07:02:05.716Z,3.96
2023-03-27T07:03:05.556Z,3.94
2023-03-27T07:04:05.503Z,3.94
2023-03-27T07:05:05.725Z,3.96
2023-03-27T07:06:05.538Z,3.97
2023-03-27T07:07:05.470Z,4.02
2023-03-27T07:08:18.700Z,4.04
2023-03-27T07:09:06.458Z,4.06
2023-03-27T07:10:06.021Z,4.11
2023-03-27T07:11:11.606Z,4.12
2023-03-27T07:12:06.462Z,4.15
2023-03-27T07:13:05.496Z,4.16
2023-03-27T07:14:05.418Z,4.18
2023-03-27T07:15:05.426Z,4.22
2023-03-27T07:16:05.673Z,4.23
2023-03-27T07:17:06.491Z,4.23
2023-03-27T07:18:05.412Z,4.23
2023-03-27T07:19:05.370Z,4.24
2023-03-27T07:20:05.372Z,4.27
2023-03-27T07:21:05.330Z,4.29
2023-03-27T07:22:05.334Z,4.32
2023-03-27T07:23:05.299Z,4.36
2023-03-27T07:24:05.286Z,4.40
2023-03-27T07:25:05.354Z,4.45
2023-03-27T07:26:05.423Z,4.50
2023-03-27T07:27:05.262Z,4.52
2023-03-27T07:28:06.364Z,4.54
2023-03-27T07:29:05.366Z,4.58
2023-03-27T07:30:05.242Z,4.59
2023-03-27T07:32:08.069Z,4.65
2023-03-27T07:33:05.319Z,4.67
2023-03-27T07:34:05.341Z,4.73
2023-03-27T07:35:05.191Z,4.73
2023-03-27T07:36:05.224Z,4.70
2023-03-27T07:37:05.195Z,4.70
2023-03-27T07:38:05.166Z,4.70
2023-03-27T07:39:05.127Z,4.72
2023-03-27T07:40:05.168Z,4.75
2023-03-27T07:41:05.118Z,4.73
2023-03-27T07:42:05.124Z,4.75
2023-03-27T07:43:05.084Z,4.77
2023-03-27T07:44:05.108Z,4.73
2023-03-27T07:45:05.096Z,4.75
2023-03-27T07:46:05.168Z,4.77
2023-03-27T07:47:05.042Z,4.82
2023-03-27T07:48:05.118Z,4.94
2023-03-27T07:49:05.028Z,5.06
2023-03-27T07:50:05.072Z,5.15
2023-03-27T07:51:13.502Z,5.18
2023-03-27T07:52:05.995Z,5.24
2023-03-27T07:53:04.993Z,5.24
2023-03-27T07:54:04.994Z,5.38
2023-03-27T07:55:04.949Z,5.60
2023-03-27T07:56:04.958Z,5.76
2023-03-27T07:57:05.023Z,5.85
2023-03-27T07:58:04.972Z,5.91
2023-03-27T07:59:04.920Z,5.99
2023-03-27T08:00:05.262Z,6.03
2023-03-27T08:01:04.914Z,6.01
2023-03-27T08:02:04.941Z,6.01
2023-03-27T08:03:05.012Z,5.99
2023-03-27T08:04:04.929Z,5.96
2023-03-27T08:05:05.038Z,5.97
2023-03-27T08:06:05.268Z,6.01
2023-03-27T08:07:04.869Z,5.99
2023-03-27T08:08:05.166Z,6.08
2023-03-27T08:09:04.809Z,6.18
2023-03-27T08:10:04.814Z,6.33
2023-03-27T08:11:04.812Z,6.36
2023-03-27T08:12:04.937Z,6.33
2023-03-27T08:13:04.752Z,6.37
2023-03-27T08:14:04.980Z,6.48
2023-03-27T08:15:04.736Z,6.70
2023-03-27T08:16:04.826Z,6.80
2023-03-27T08:17:15.055Z,6.71
2023-03-27T08:18:05.767Z,6.62
2023-03-27T08:19:04.743Z,6.58
2023-03-27T08:20:04.717Z,6.76
2023-03-27T08:21:04.693Z,6.92
2023-03-27T08:22:04.703Z,7.06
2023-03-27T08:23:04.648Z,6.97
2023-03-27T08:24:04.693Z,6.81
2023-03-27T08:25:04.653Z,6.81
2023-03-27T08:26:04.676Z,6.94
2023-03-27T08:27:04.604Z,7.07
2023-03-27T08:28:04.716Z,7.34
2023-03-27T08:29:04.592Z,7.52
2023-03-27T08:30:04.675Z,7.45
2023-03-27T08:31:04.642Z,7.42
2023-03-27T08:32:04.654Z,7.49
2023-03-27T08:33:04.589Z,7.68
2023-03-27T08:34:04.594Z,7.80
2023-03-27T08:35:04.516Z,7.82
2023-03-27T08:36:04.588Z,7.75
2023-03-27T08:37:04.521Z,7.61
2023-03-27T08:38:07.352Z,7.48
2023-03-27T08:39:05.473Z,7.43
2023-03-27T08:40:04.510Z,7.40
2023-03-27T08:41:04.471Z,7.34
2023-03-27T08:42:04.858Z,7.34
2023-03-27T08:43:04.439Z,7.25
2023-03-27T08:44:04.457Z,7.27
2023-03-27T08:45:04.408Z,7.48
2023-03-27T08:46:04.494Z,7.60
2023-03-27T08:47:04.415Z,7.53
2023-03-27T08:48:04.536Z,7.49
2023-03-27T08:49:04.372Z,7.42
2023-03-27T08:50:04.367Z,7.31
2023-03-27T08:51:04.431Z,7.20
2023-03-27T08:52:04.410Z,7.09
2023-03-27T08:53:04.326Z,7.02
2023-03-27T08:54:04.441Z,6.92
2023-03-27T08:55:04.333Z,6.81
2023-03-27T08:56:04.392Z,6.80
2023-03-27T08:57:04.332Z,6.80
2023-03-27T08:58:04.314Z,6.79
2023-03-27T08:59:04.296Z,6.64
2023-03-27T09:00:04.277Z,6.52
2023-03-27T09:01:04.264Z,6.54
2023-03-27T09:02:04.320Z,6.59
2023-03-27T09:03:04.317Z,6.73
2023-03-27T09:04:04.265Z,6.81
2023-03-27T09:05:04.382Z,6.94
2023-03-27T09:06:04.561Z,6.99
2023-03-27T09:07:04.369Z,7.05
2023-03-27T09:08:04.237Z,7.12
2023-03-27T09:09:04.323Z,7.20
2023-03-27T09:10:04.172Z,7.25
2023-03-27T09:11:04.229Z,7.23
2023-03-27T09:12:04.141Z,7.10
2023-03-27T09:13:04.141Z,7.02
2023-03-27T09:14:04.133Z,6.98
2023-03-27T09:15:04.127Z,6.97
2023-03-27T09:16:04.278Z,6.92
2023-03-27T09:17:04.294Z,6.92
2023-03-27T09:18:04.404Z,6.95
2023-03-27T09:19:04.050Z,6.98
2023-03-27T09:20:04.156Z,6.89
2023-03-27T09:21:04.094Z,6.95
2023-03-27T09:22:04.051Z,7.28
2023-03-27T09:23:04.016Z,7.31
2023-03-27T09:24:04.111Z,7.40
2023-03-27T09:25:03.988Z,7.55
2023-03-27T09:26:03.998Z,7.61
2023-03-27T09:27:07.327Z,7.68
2023-03-27T09:28:03.980Z,7.57
2023-03-27T09:29:03.936Z,7.49
2023-03-27T09:30:05.840Z,7.39
2023-03-27T09:31:03.924Z,7.28
2023-03-27T09:32:03.926Z,7.23
2023-03-27T09:33:03.921Z,7.06
2023-03-27T09:34:03.939Z,6.91
2023-03-27T09:35:03.870Z,6.76
2023-03-27T09:36:03.910Z,6.59
2023-03-27T09:37:03.841Z,6.30
2023-03-27T09:38:04.017Z,6.09
2023-03-27T09:39:03.865Z,5.91
2023-03-27T09:40:03.812Z,5.74
2023-03-27T09:41:03.820Z,5.53
2023-03-27T09:42:07.220Z,5.40
2023-03-27T09:43:03.845Z,5.42
2023-03-27T09:44:03.841Z,5.39
2023-03-27T09:45:03.774Z,5.31
2023-03-27T09:46:04.063Z,5.36
2023-03-27T09:47:03.773Z,5.39
2023-03-27T09:48:03.812Z,5.42
2023-03-27T09:49:03.731Z,5.46
2023-03-27T09:50:03.724Z,5.43
2023-03-27T09:51:03.705Z,5.46
2023-03-27T09:52:03.724Z,5.49
2023-03-27T09:53:03.669Z,5.67
2023-03-27T09:54:03.669Z,5.91
2023-03-27T09:55:03.653Z,6.15
2023-03-27T09:56:03.713Z,6.44
2023-03-27T09:57:03.671Z,6.80
2023-03-27T09:58:03.652Z,7.10
2023-03-27T09:59:03.605Z,7.39
2023-03-27T10:00:03.633Z,7.60
2023-03-27T10:01:03.651Z,7.83
2023-03-27T10:02:04.221Z,7.97
2023-03-27T10:03:03.774Z,8.16
2023-03-27T10:04:04.338Z,8.23
2023-03-27T10:05:03.557Z,8.55
2023-03-27T10:06:03.609Z,8.71
2023-03-27T10:07:03.520Z,8.76
2023-03-27T10:08:03.615Z,8.84
2023-03-27T10:09:03.508Z,8.94
2023-03-27T10:10:03.642Z,8.98
2023-03-27T10:11:03.499Z,8.84
2023-03-27T10:12:03.497Z,8.84
2023-03-27T10:13:03.462Z,8.99
2023-03-27T10:14:03.468Z,9.05
2023-03-27T10:15:03.434Z,8.87
2023-03-27T10:16:03.489Z,8.52
2023-03-27T10:17:03.460Z,8.63
2023-03-27T10:18:03.460Z,8.92
2023-03-27T10:19:03.400Z,9.17
2023-03-27T10:20:03.460Z,9.32
2023-03-27T10:21:03.389Z,9.47
2023-03-27T10:22:03.392Z,9.64
2023-03-27T10:23:03.390Z,9.79
2023-03-27T10:24:03.395Z,9.86
2023-03-27T10:25:03.328Z,9.84
2023-03-27T10:26:03.387Z,9.58
2023-03-27T10:27:03.320Z,9.26
2023-03-27T10:28:03.298Z,9.02
2023-03-27T10:29:03.303Z,8.79
2023-03-27T10:30:03.348Z,8.66
2023-03-27T10:31:03.314Z,8.48
2023-03-27T10:32:03.386Z,8.36
2023-03-27T10:33:03.285Z,8.23
2023-03-27T10:34:03.237Z,7.97
2023-03-27T10:35:03.240Z,8.04
2023-03-27T10:36:03.345Z,7.97
2023-03-27T10:37:03.244Z,7.80
2023-03-27T10:38:03.333Z,7.71
2023-03-27T10:39:03.179Z,7.58
2023-03-27T10:40:03.233Z,7.52
2023-03-27T10:41:03.163Z,7.79
2023-03-27T10:42:03.161Z,8.15
2023-03-27T10:43:03.130Z,8.45
2023-03-27T10:44:03.221Z,8.80
2023-03-27T10:45:03.127Z,8.92
2023-03-27T10:46:03.173Z,9.10
2023-03-27T10:47:03.132Z,9.21
2023-03-27T10:48:03.178Z,9.35
2023-03-27T10:49:03.067Z,9.51
2023-03-27T10:50:03.189Z,9.54
2023-03-27T10:51:03.077Z,9.51
2023-03-27T10:52:03.064Z,9.58
2023-03-27T10:53:03.078Z,9.69
2023-03-27T10:54:03.175Z,9.75
2023-03-27T10:55:03.003Z,9.78
2023-03-27T10:56:03.049Z,9.84
2023-03-27T10:57:03.089Z,9.81
2023-03-27T10:58:03.046Z,9.81
2023-03-27T10:59:02.992Z,9.91
2023-03-27T11:00:03.035Z,10.17
2023-03-27T11:01:03.048Z,10.44
2023-03-27T11:02:02.976Z,10.66
2023-03-27T11:03:02.922Z,10.64
2023-03-27T11:04:03.000Z,10.47
2023-03-27T11:05:02.895Z,10.30
2023-03-27T11:06:02.957Z,10.12
2023-03-27T11:07:02.862Z,10.02
2023-03-27T11:08:02.929Z,9.94
2023-03-27T11:09:02.851Z,9.90
2023-03-27T11:10:02.831Z,9.76
2023-03-27T11:11:02.862Z,9.66
2023-03-27T11:12:02.881Z,9.86
2023-03-27T11:13:02.816Z,9.68
2023-03-27T11:14:02.800Z,9.50
2023-03-27T11:15:02.805Z,9.42
2023-03-27T11:16:02.814Z,9.66
2023-03-27T11:17:02.839Z,9.84
2023-03-27T11:18:02.804Z,9.84
2023-03-27T11:19:02.833Z,9.94
2023-03-27T11:20:02.734Z,10.01
2023-03-27T11:21:02.761Z,10.07
2023-03-27T11:22:02.777Z,10.17
2023-03-27T11:23:02.733Z,10.38
2023-03-27T11:24:02.790Z,10.64
2023-03-27T11:25:02.679Z,10.41
2023-03-27T11:26:02.814Z,10.12
2023-03-27T11:27:02.658Z,9.78
2023-03-27T11:28:02.739Z,9.54
2023-03-27T11:29:02.638Z,9.56
2023-03-27T11:30:02.640Z,9.40
2023-03-27T11:31:12.288Z,9.48
2023-03-27T11:32:03.681Z,9.57
2023-03-27T11:33:02.675Z,9.81
2023-03-27T11:34:02.615Z,9.86
2023-03-27T11:35:04.048Z,10.04
2023-03-27T11:36:02.752Z,10.30
2023-03-27T11:37:02.549Z,10.52
2023-03-27T11:38:02.596Z,10.52
2023-03-27T11:39:02.545Z,10.59
2023-03-27T11:40:02.575Z,10.61
2023-03-27T11:41:02.535Z,10.60
2023-03-27T11:42:02.549Z,10.27
2023-03-27T11:43:02.484Z,10.26
2023-03-27T11:44:02.585Z,10.47
2023-03-27T11:45:02.465Z,10.63
2023-03-27T11:46:02.522Z,10.52
2023-03-27T11:47:02.453Z,10.41
2023-03-27T11:48:02.529Z,10.33
2023-03-27T11:49:02.418Z,10.22
2023-03-27T11:50:02.452Z,9.93
2023-03-27T11:51:02.404Z,9.79
2023-03-27T11:52:02.602Z,9.75
2023-03-27T11:53:02.380Z,9.54
2023-03-27T11:54:02.385Z,9.43
2023-03-27T11:55:02.359Z,9.23
2023-03-27T11:56:02.371Z,9.13
2023-03-27T11:57:02.469Z,8.89
2023-03-27T11:58:02.334Z,8.61
2023-03-27T11:59:02.333Z,8.26
2023-03-27T12:00:02.372Z,7.93
2023-03-27T12:01:02.302Z,7.60
2023-03-27T12:02:02.426Z,7.50
2023-03-27T12:03:02.410Z,7.60
2023-03-27T12:04:02.391Z,7.53
2023-03-27T12:05:02.252Z,7.58
2023-03-27T12:06:02.446Z,7.67
2023-03-27T12:07:04.826Z,7.67
2023-03-27T12:08:02.280Z,7.72
2023-03-27T12:09:02.212Z,8.04
2023-03-27T12:10:02.214Z,8.37
2023-03-27T12:11:02.195Z,8.68
2023-03-27T12:12:02.221Z,8.89
2023-03-27T12:13:02.214Z,8.98
2023-03-27T12:14:03.416Z,9.13
2023-03-27T12:15:02.178Z,9.28
2023-03-27T12:16:02.186Z,9.21
2023-03-27T12:17:02.124Z,9.14
2023-03-27T12:18:02.260Z,9.05
2023-03-27T12:19:08.066Z,9.11
2023-03-27T12:20:03.206Z,8.91
2023-03-27T12:21:02.294Z,8.83
2023-03-27T12:22:05.287Z,8.77
2023-03-27T12:23:03.074Z,8.71
2023-03-27T12:24:02.051Z,8.65
2023-03-27T12:25:02.025Z,8.50
2023-03-27T12:26:02.151Z,8.34
2023-03-27T12:27:02.715Z,8.11
2023-03-27T12:28:02.049Z,8.05
2023-03-27T12:29:02.024Z,7.86
2023-03-27T12:30:02.032Z,7.60
2023-03-27T12:31:02.008Z,7.46
2023-03-27T12:32:02.113Z,7.16
2023-03-27T12:33:01.946Z,7.02
2023-03-27T12:34:01.952Z,6.99
2023-03-27T12:35:01.915Z,6.99
2023-03-27T12:36:02.083Z,6.80
2023-03-27T12:37:01.902Z,6.64
2023-03-27T12:38:01.894Z,6.56
2023-03-27T12:39:01.910Z,6.52
2023-03-27T12:40:01.872Z,6.51
2023-03-27T12:41:01.863Z,6.51
2023-03-27T12:42:01.862Z,6.48
2023-03-27T12:43:01.888Z,6.38
2023-03-27T12:44:01.947Z,6.28
2023-03-27T12:45:01.829Z,6.30
2023-03-27T12:46:02.038Z,6.37
2023-03-27T12:47:01.794Z,6.43
2023-03-27T12:48:01.835Z,6.43
2023-03-27T12:49:01.757Z,6.41
2023-03-27T12:50:01.757Z,6.43
2023-03-27T12:51:01.760Z,6.52
2023-03-27T12:52:01.731Z,6.62
2023-03-27T12:53:01.764Z,6.66
2023-03-27T12:54:01.715Z,6.66
2023-03-27T12:55:01.701Z,6.76
2023-03-27T12:56:01.753Z,7.03
2023-03-27T12:57:01.735Z,7.39
2023-03-27T12:58:02.017Z,7.77
2023-03-27T12:59:01.667Z,7.95
2023-03-27T13:00:01.669Z,8.18
2023-03-27T13:01:01.707Z,8.41
2023-03-27T13:02:01.671Z,8.61
2023-03-27T13:03:01.726Z,8.71
2023-03-27T13:04:01.755Z,8.80
2023-03-27T13:05:01.588Z,8.84
2023-03-27T13:06:01.665Z,8.74
2023-03-27T13:07:01.630Z,8.95
2023-03-27T13:08:01.564Z,8.74
2023-03-27T13:09:01.616Z,8.81
2023-03-27T13:10:01.567Z,8.77
2023-03-27T13:11:01.591Z,8.84
2023-03-27T13:12:01.520Z,9.05
2023-03-27T13:13:01.558Z,8.95
2023-03-27T13:14:01.535Z,8.79
2023-03-27T13:15:01.569Z,8.65
2023-03-27T13:16:01.573Z,8.43
2023-03-27T13:17:01.522Z,8.29
2023-03-27T13:18:01.517Z,8.25
2023-03-27T13:19:01.470Z,8.48